Aviation Digital Data Service (ADDS)

Output produced by METARs form (1725 UTC 26 August 2016)
found at http://aviationweather.gov/adds/metars/
 
KJXN 261140Z 2612/2712 28006KT P6SM BKN200 
     FM270100 VRB03KT P6SM BKN100